No requiere especial atencion con respecto al clima.   -   No hay Alarmas

Nearby METAR Reports

 

LEAM - Almeria Airport, Spain
Distance from station: E 41km
Actualización: 14/11/2018 06:30
Muy nuboso
Muy nuboso
 Viento del NE
Viento: NE 28 km/h
Temperatura: 20°C
Rocío: 12°C
Humedad: 60%
Barómetro: 1019 hPa
Clouds: Muy nuboso
Visibility: 10 km
Cloud details: Muy nuboso 2438 m
2018/11/14 05:30 LEAM 140530Z 05015KT 010V090 9999 BKN080 20/12 Q1019
LEGA - Armilla (civ/Mil, Spain
Distance from station: ONO 80km
Actualización: 13/11/2018 19:00
NOT Current
Parcialmente nuboso
Parcialmente nuboso
 Viento del varies
Viento: varies 2 km/h
Temperatura: 14°C
Rocío: 10°C
Humedad: 77%
Barómetro: 1022 hPa
Clouds: Parcialmente nuboso
Visibility: 10 km
Cloud details: Parcialmente nuboso 2134 m
2018/11/13 18:00 LEGA 131800Z VRB01KT 9999 SCT070 14/10 Q1022
 
LEGR - Granada Airport, Spain
Distance from station: ONO 95km
Actualización: 14/11/2018 06:30
Few Clouds
Few Clouds
 Viento del varies
Viento: varies 2 km/h
Temperatura: 10°C
Rocío: 9°C
Humedad: 94%
Barómetro: 1020 hPa
Clouds: Few Clouds
Visibility: 7 km
Cloud details: Few Clouds 2438 m
2018/11/14 05:30 LEGR 140530Z VRB01KT 7000 FEW080 10/09 Q1020
LEMG - Malaga (civ/Mil), Spain
Distance from station: O 151km
Actualización: 14/11/2018 06:30
Few Clouds
Few Clouds
 Viento del NO
Viento: NO 9 km/h
Temperatura: 15°C
Rocío: 14°C
Humedad: 94%
Barómetro: 1018 hPa
Clouds: Few Clouds
Visibility: 10 km
Cloud details: Few Clouds 1524 m
2018/11/14 05:30 LEMG 140530Z 31005KT 9999 FEW050 15/14 Q1018 NOSIG
 
GEML - Melilla, Spain
Distance from station: S 169km
Actualización: 14/11/2018 06:30
Mist, Parcialmente nuboso
Mist, Parcialmente nuboso
 Viento del calm
Viento: Calma
Temperatura: 16°C
Rocío: 16°C
Humedad: 100%
Barómetro: 1017 hPa
Resumen: Mist
Clouds: Parcialmente nuboso
Visibility: 5 km
Cloud details: Few Clouds 61 m
Parcialmente nuboso 91 m
2018/11/14 05:30 GEML 140530Z 00000KT 4800 BR FEW002 SCT003 16/16 Q1017
LERI - Alcantarilla(Sp-, Spain
Distance from station: NE 192km
Actualización: 13/11/2018 19:00
NOT Current
Despejado
Despejado
 Viento del E
Viento: E 9 km/h
Temperatura: 17°C
Rocío: 13°C
Humedad: 77%
Barómetro: 1023 hPa
Resumen: Despejado
Visibility: greater than 10 km
2018/11/13 18:00 LERI 131800Z 09005KT CAVOK 17/13 Q1023 NOSIG
 
GMMW - Arwi, Morocco
Distance from station: S 201km
Actualización: 14/11/2018 06:18
Mist, Parcialmente nuboso
Mist, Parcialmente nuboso
 Viento del ONO
Viento: ONO 6 km/h
Temperatura: 12°C
Rocío: 11°C
Humedad: 94%
Barómetro: 1017 hPa
Resumen: Mist
Clouds: Parcialmente nuboso
Visibility: 3 km
Cloud details: Few Clouds 183 m
Parcialmente nuboso 610 m
2018/11/14 05:18 GMMW 140518Z 30003KT 3000 R08/1100D BR FEW006 SCT020 12/11 Q1017 NOSIG B2
GMTA - Al Hoceima/Cote, Morocco
Distance from station: SSO 202km
Actualización: 14/11/2018 06:00
Parcialmente nuboso
Parcialmente nuboso
 Viento del S
Viento: S 11 km/h
Temperatura: 13°C
Rocío: 12°C
Humedad: 94%
Barómetro: 1017 hPa
Clouds: Parcialmente nuboso
Visibility: 8 km
Cloud details: Parcialmente nuboso 701 m
Parcialmente nuboso 792 m
2018/11/14 05:00 GMTA 140500Z 18006KT 8000 SCT023 SCT026 13/12 Q1017 NOSIG
 
LELC - San Javier(Mil/C, Spain
Distance from station: ENE 209km
Actualización: 14/11/2018 06:30
Despejado
Despejado
 Viento del N
Viento: N 17 km/h
Temperatura: 17°C
Rocío: 14°C
Humedad: 83%
Barómetro: 1021 hPa
Resumen: Despejado
Visibility: greater than 10 km
2018/11/14 05:30 LELC 140530Z AUTO 01009KT CAVOK 17/14 Q1021
LEBA - Cordoba Airport, Spain
Distance from station: NO 213km
Actualización: 14/11/2018 06:30
Despejado
Despejado
 Viento del E
Viento: E 11 km/h
Temperatura: 12°C
Rocío: 11°C
Humedad: 94%
Barómetro: 1019 hPa
Resumen: Despejado
Visibility: greater than 10 km
2018/11/14 05:30 LEBA 140530Z AUTO 08006KT CAVOK 12/11 Q1019
 
DAON - Tlemcen/Zenata, Algeria
Distance from station: SSE 231km
Actualización: 14/11/2018 06:30
Parcialmente nuboso
Parcialmente nuboso
 Viento del calm
Viento: Calma
Temperatura: 13°C
Rocío: 12°C
Humedad: 94%
Barómetro: 1018 hPa
Clouds: Parcialmente nuboso
Visibility: 10 km
Cloud details: Parcialmente nuboso 792 m
Parcialmente nuboso 3048 m
2018/11/14 05:30 DAON 140530Z 00000KT 9999 SCT026 SCT100 13/12 Q1018
LXGB - Gibraltar (civ/M, Gibraltar
Distance from station: OSO 236km
Actualización: 14/11/2018 05:50
Muy nuboso
Muy nuboso
 Viento del NE
Viento: NE 26 km/h
Temperatura: 17°C
Rocío: 16°C
Humedad: 94%
Barómetro: 1017 hPa
Clouds: Muy nuboso
Visibility: 10 km
Cloud details: Parcialmente nuboso 488 m
Muy nuboso 732 m
2018/11/14 04:50 LXGB 140450Z AUTO 05014KT 9999 // SCT016/// BKN024/// 17/16 Q1017
 
DAOO - Oran/Es Senia, Algeria
Distance from station: ESE 237km
Actualización: 14/11/2018 06:30
Parcialmente nuboso
Parcialmente nuboso
 Viento del E
Viento: E 11 km/h
Temperatura: 17°C
Rocío: 13°C
Humedad: 77%
Barómetro: 1018 hPa
Clouds: Parcialmente nuboso
Visibility: 10 km
Cloud details: Parcialmente nuboso 914 m
2018/11/14 05:30 DAOO 140530Z 08006KT 9999 SCT030 17/13 Q1018
GMFO - Oujda/Angads, Morocco
Distance from station: SSE 238km
Actualización: 14/11/2018 06:00
Parcialmente nuboso
Parcialmente nuboso
 Viento del varies
Viento: varies 6 km/h
Temperatura: 11°C
Rocío: 11°C
Humedad: 100%
Barómetro: 1018 hPa
Clouds: Parcialmente nuboso
Visibility: 10 km
Cloud details: Parcialmente nuboso 701 m
2018/11/14 05:00 GMFO 140500Z VRB03KT 9999 SCT023 11/11 Q1018 NOSIG
 
DAOL - Oran/Tafaroui, Algeria
Distance from station: ESE 249km
Actualización: 14/11/2018 06:00
Muy nuboso
Muy nuboso
 Viento del ESE
Viento: ESE 15 km/h
Temperatura: 15°C
Rocío: 13°C
Humedad: 88%
Barómetro: 1019 hPa
Clouds: Muy nuboso
Visibility: 8 km
Cloud details: Parcialmente nuboso 792 m
Muy nuboso 6096 m
2018/11/14 05:00 DAOL 140500Z 11008KT 8000 SCT026 BKN200 15/13 Q1019
LEMO - Moron (sp-Usafb), Spain
Distance from station: O 252km
Actualización: 14/11/2018 06:00
Lluvia débil, Few clouds
Lluvia débil, Few clouds
 Viento del ENE
Viento: ENE 11 km/h
Temperatura: 14°C
Rocío: 13°C
Humedad: 94%
Barómetro: 1018 hPa
Resumen: Lluvia débil
Clouds: Few Clouds
Visibility: 10 km
Cloud details: Few Clouds 1829 m
2018/11/14 05:00 LEMO 140500Z 06006KT 9999 -RA FEW060 14/13 Q1018 NOSIG
 
LEAB - Albacete (civ/Mi, Spain
Distance from station: NNE 255km
Actualización: 14/11/2018 06:00
Mist, Muy nuboso
Mist, Muy nuboso
 Viento del calm
Viento: Calma
Temperatura: 8°C
Rocío: 8°C
Humedad: 100%
Barómetro: 1024 hPa
Resumen: Mist
Clouds: Muy nuboso
Visibility: 5 km
Cloud details: Muy nuboso 457 m
2018/11/14 05:00 LEAB 140500Z 00000KT 5000 BR BKN015 08/08 Q1024 NOSIG
LEAL - Alicante/El Alte, Spain
Distance from station: NE 259km
Actualización: 14/11/2018 06:30
Despejado
Despejado
 Viento del NNE
Viento: NNE 6 km/h
Temperatura: 15°C
Rocío: 11°C
Humedad: 77%
Barómetro: 1022 hPa
Resumen: Despejado
Visibility: greater than 10 km
2018/11/14 05:30 LEAL 140530Z 02003KT CAVOK 15/11 Q1022 NOSIG
 
GMTN - Sania Ramel/Teto, Morocco
Distance from station: OSO 262km
Actualización: 14/11/2018 06:00

 Viento del ENE
Viento: ENE 6 km/h
Temperatura: 17°C
Rocío: 14°C
Humedad: 83%
Barómetro: 1016 hPa
Visibility: 7 km
2018/11/14 05:00 GMTN 140500Z AUTO 06003KT 7000NDV /// 17/14 Q1016
LEZL - Sevilla (civ/Mil, Spain
Distance from station: ONO 282km
Actualización: 14/11/2018 06:30
Despejado
Despejado
 Viento del NE
Viento: NE 11 km/h
Temperatura: 15°C
Rocío: 13°C
Humedad: 88%
Barómetro: 1018 hPa
Resumen: Despejado
Visibility: greater than 10 km
2018/11/14 05:30 LEZL 140530Z 05006KT CAVOK 15/13 Q1018 NOSIG